createdAt,value
2018-10-12T00:02:24.745Z,22.67
2018-10-12T00:04:52.159Z,23.17
2018-10-12T00:07:19.815Z,23.27
2018-10-12T00:09:47.217Z,22.47
2018-10-12T00:12:14.649Z,22.20
2018-10-12T00:14:42.080Z,19.90
2018-10-12T00:17:09.624Z,20.97
2018-10-12T00:19:38.234Z,22.00
2018-10-12T00:22:05.647Z,19.63
2018-10-12T00:24:33.069Z,19.90
2018-10-12T00:27:00.759Z,20.17
2018-10-12T00:29:28.715Z,18.23
2018-10-12T00:31:56.185Z,18.53
2018-10-12T00:34:23.627Z,19.83
2018-10-12T00:36:51.942Z,22.30
2018-10-12T00:39:19.346Z,19.23
2018-10-12T00:41:46.783Z,20.30
2018-10-12T00:44:14.211Z,18.23
2018-10-12T00:46:41.635Z,20.43
2018-10-12T00:49:09.944Z,21.83
2018-10-12T00:51:37.354Z,20.60
2018-10-12T00:54:04.838Z,17.40
2018-10-12T00:56:32.286Z,20.50
2018-10-12T00:58:59.728Z,19.03
2018-10-12T01:01:27.161Z,18.13
2018-10-12T01:03:55.223Z,19.83
2018-10-12T01:06:22.660Z,16.57
2018-10-12T01:08:50.072Z,16.87
2018-10-12T01:11:17.561Z,19.93
2018-10-12T01:13:45.058Z,17.30
2018-10-12T01:16:12.488Z,19.30
2018-10-12T01:18:40.067Z,22.03
2018-10-12T01:21:07.935Z,18.83
2018-10-12T01:23:35.390Z,23.90
2018-10-12T01:26:03.697Z,21.27
2018-10-12T01:28:31.151Z,22.57
2018-10-12T01:30:58.631Z,20.77
2018-10-12T01:33:26.071Z,24.23
2018-10-12T01:35:53.486Z,26.60
2018-10-12T01:38:20.979Z,23.70
2018-10-12T01:40:48.488Z,27.73
2018-10-12T01:43:15.924Z,22.43
2018-10-12T01:45:43.415Z,23.70
2018-10-12T01:48:10.883Z,24.07
2018-10-12T01:50:38.335Z,20.57
2018-10-12T01:53:06.012Z,23.70
2018-10-12T01:55:33.495Z,20.20
2018-10-12T01:58:00.947Z,20.23
2018-10-12T02:00:28.387Z,19.03
2018-10-12T02:02:55.905Z,19.20
2018-10-12T02:05:23.341Z,20.43
2018-10-12T02:07:50.833Z,23.60
2018-10-12T02:10:18.268Z,24.67
2018-10-12T02:12:45.961Z,21.47
2018-10-12T02:15:13.404Z,22.30
2018-10-12T02:17:40.864Z,20.20
2018-10-12T02:20:08.447Z,26.20
2018-10-12T02:22:35.917Z,24.20
2018-10-12T02:25:03.350Z,27.17
2018-10-12T02:27:30.788Z,26.43
2018-10-12T02:29:58.442Z,25.67
2018-10-12T02:32:25.881Z,30.70
2018-10-12T02:34:53.300Z,29.13
2018-10-12T02:37:20.755Z,30.47
2018-10-12T02:39:48.251Z,27.70
2018-10-12T02:42:15.693Z,26.77
2018-10-12T02:44:43.103Z,24.57
2018-10-12T02:47:10.516Z,23.27
2018-10-12T02:49:37.937Z,22.50
2018-10-12T02:52:05.967Z,23.00
2018-10-12T02:54:33.359Z,26.13
2018-10-12T02:57:00.809Z,26.47
2018-10-12T02:59:28.299Z,24.27
2018-10-12T03:01:55.746Z,18.63
2018-10-12T03:04:26.230Z,30.90
2018-10-12T03:06:53.709Z,31.63
2018-10-12T03:09:21.124Z,29.37
2018-10-12T03:11:48.545Z,25.20
2018-10-12T03:14:16.003Z,22.43
2018-10-12T03:16:43.543Z,26.97
2018-10-12T03:19:10.987Z,26.07
2018-10-12T03:21:38.398Z,26.90
2018-10-12T03:24:05.828Z,27.20
2018-10-12T03:26:33.279Z,27.03
2018-10-12T03:29:00.683Z,28.40
2018-10-12T03:31:28.735Z,28.07
2018-10-12T03:33:56.269Z,25.87
2018-10-12T03:36:23.747Z,23.40
2018-10-12T03:38:51.187Z,25.00
2018-10-12T03:41:18.644Z,31.43
2018-10-12T03:43:46.105Z,25.90
2018-10-12T03:46:13.580Z,26.43
2018-10-12T03:48:41.011Z,23.23
2018-10-12T03:51:08.422Z,27.73
2018-10-12T03:53:35.914Z,27.47
2018-10-12T03:56:03.344Z,25.53
2018-10-12T03:58:30.817Z,25.33
2018-10-12T04:00:58.235Z,23.37
2018-10-12T04:03:25.669Z,25.10
2018-10-12T04:05:53.119Z,21.83
2018-10-12T04:08:20.554Z,22.83
2018-10-12T04:10:48.617Z,22.70
2018-10-12T04:13:16.064Z,24.50
2018-10-12T04:15:43.540Z,20.27
2018-10-12T04:18:10.980Z,23.23
2018-10-12T04:20:38.965Z,28.90
2018-10-12T04:23:06.467Z,27.23
2018-10-12T04:25:33.887Z,24.00
2018-10-12T04:28:01.297Z,23.07
2018-10-12T04:30:28.735Z,25.70
2018-10-12T04:32:56.175Z,29.00
2018-10-12T04:35:24.495Z,23.03
2018-10-12T04:37:51.943Z,23.63
2018-10-12T04:41:26.310Z,27.10
2018-10-12T04:43:55.123Z,23.50
2018-10-12T04:46:25.465Z,28.63
2018-10-12T04:48:53.288Z,23.10
2018-10-12T04:51:23.267Z,25.03
2018-10-12T04:53:50.858Z,27.07
2018-10-12T04:56:19.346Z,29.30
2018-10-12T04:58:46.809Z,25.83
2018-10-12T05:01:14.394Z,26.47
2018-10-12T05:03:41.721Z,27.03
2018-10-12T05:06:09.244Z,25.93
2018-10-12T05:08:37.856Z,27.97
2018-10-12T05:11:05.343Z,28.43
2018-10-12T05:13:34.652Z,26.63
2018-10-12T05:16:03.643Z,26.47
2018-10-12T05:18:31.211Z,28.30
2018-10-12T05:21:00.096Z,26.33
2018-10-12T05:23:27.875Z,25.47
2018-10-12T05:25:55.327Z,29.10
2018-10-12T05:28:23.557Z,25.83
2018-10-12T05:30:51.000Z,29.60
2018-10-12T05:33:18.411Z,28.80
2018-10-12T05:35:46.035Z,25.13
2018-10-12T05:38:13.815Z,30.43
2018-10-12T05:40:41.275Z,30.53
2018-10-12T05:43:08.736Z,26.57
2018-10-12T05:45:36.168Z,33.03
2018-10-12T05:48:09.235Z,31.07
2018-10-12T05:50:36.704Z,36.63
2018-10-12T05:53:04.177Z,35.23
2018-10-12T05:55:31.680Z,30.27
2018-10-12T05:57:59.511Z,37.10
2018-10-12T06:00:27.050Z,30.97
2018-10-12T06:02:54.617Z,34.20
2018-10-12T06:05:22.075Z,27.30
2018-10-12T06:07:49.891Z,29.17
2018-10-12T06:10:17.306Z,27.17
2018-10-12T06:12:44.755Z,31.07
2018-10-12T06:15:12.327Z,25.80
2018-10-12T06:17:39.747Z,33.90
2018-10-12T06:20:07.267Z,27.57
2018-10-12T06:22:34.776Z,31.73
2018-10-12T06:25:02.192Z,33.07
2018-10-12T06:27:29.688Z,31.47
2018-10-12T06:29:57.101Z,34.93
2018-10-12T06:32:24.523Z,33.50
2018-10-12T06:34:51.948Z,35.27
2018-10-12T06:37:19.383Z,32.63
2018-10-12T06:39:47.455Z,33.47
2018-10-12T06:42:14.914Z,34.87
2018-10-12T06:44:42.777Z,36.00
2018-10-12T06:47:10.243Z,31.03
2018-10-12T06:49:37.679Z,36.70
2018-10-12T06:52:05.135Z,29.80
2018-10-12T06:54:32.632Z,36.73
2018-10-12T06:57:00.437Z,33.10
2018-10-12T06:59:27.928Z,38.63
2018-10-12T07:01:55.460Z,32.37
2018-10-12T07:04:22.959Z,38.67
2018-10-12T07:06:50.450Z,30.37
2018-10-12T07:09:17.885Z,29.23
2018-10-12T07:11:45.363Z,28.97
2018-10-12T07:14:12.787Z,26.97
2018-10-12T07:16:40.316Z,31.20
2018-10-12T07:19:07.752Z,26.97
2018-10-12T07:21:35.681Z,33.20
2018-10-12T07:24:03.179Z,31.13
2018-10-12T07:26:30.640Z,24.23
2018-10-12T07:28:58.165Z,25.80
2018-10-12T07:31:25.655Z,28.50
2018-10-12T07:33:53.092Z,27.67
2018-10-12T07:36:21.504Z,27.23
2018-10-12T07:38:49.039Z,27.87
2018-10-12T07:41:16.775Z,26.73
2018-10-12T07:43:44.186Z,28.40
2018-10-12T07:46:11.996Z,26.47
2018-10-12T07:48:39.457Z,28.93
2018-10-12T07:51:06.971Z,26.53
2018-10-12T07:53:34.401Z,26.80
2018-10-12T07:56:01.873Z,26.97
2018-10-12T07:58:29.389Z,28.53
2018-10-12T08:00:56.868Z,25.43
2018-10-12T08:03:25.296Z,39.13
2018-10-12T08:05:52.772Z,30.53
2018-10-12T08:08:21.174Z,27.57
2018-10-12T08:10:48.703Z,26.47
2018-10-12T08:13:16.128Z,25.50
2018-10-12T08:15:44.223Z,28.80
2018-10-12T08:18:11.942Z,27.60
2018-10-12T08:20:39.398Z,23.37
2018-10-12T08:23:06.881Z,26.73
2018-10-12T08:25:34.312Z,25.63
2018-10-12T08:28:01.807Z,38.90
2018-10-12T08:30:29.302Z,31.50
2018-10-12T08:32:56.909Z,28.07
2018-10-12T08:35:24.343Z,33.27
2018-10-12T08:37:51.844Z,29.40
2018-10-12T08:40:19.479Z,25.30
2018-10-12T08:42:46.929Z,29.80
2018-10-12T08:45:14.391Z,24.27
2018-10-12T08:47:41.827Z,28.20
2018-10-12T08:50:09.273Z,25.83
2018-10-12T08:52:37.567Z,26.93
2018-10-12T08:55:05.022Z,27.83
2018-10-12T08:57:32.460Z,26.23
2018-10-12T09:00:00.072Z,30.40
2018-10-12T09:02:27.627Z,26.73
2018-10-12T09:04:55.143Z,29.73
2018-10-12T09:07:22.711Z,28.70
2018-10-12T09:09:50.243Z,24.70
2018-10-12T09:12:17.689Z,29.27
2018-10-12T09:14:45.204Z,28.67
2018-10-12T09:17:12.771Z,29.60
2018-10-12T09:19:40.242Z,27.93
2018-10-12T09:22:07.666Z,31.63
2018-10-12T09:24:35.189Z,25.37
2018-10-12T09:27:02.711Z,24.47
2018-10-12T09:29:30.176Z,27.07
2018-10-12T09:31:57.648Z,31.30
2018-10-12T09:34:25.111Z,28.17
2018-10-12T09:36:52.619Z,25.63
2018-10-12T09:39:20.154Z,25.90
2018-10-12T09:41:47.592Z,28.80
2018-10-12T09:44:15.075Z,28.73
2018-10-12T09:46:42.517Z,25.83
2018-10-12T09:49:10.783Z,27.20
2018-10-12T09:51:38.965Z,28.53
2018-10-12T09:54:06.490Z,27.77
2018-10-12T09:56:35.145Z,28.23
2018-10-12T09:59:03.146Z,31.70
2018-10-12T10:01:35.918Z,30.13
2018-10-12T10:04:08.742Z,37.30
2018-10-12T10:06:36.187Z,45.87
2018-10-12T10:09:05.646Z,26.60
2018-10-12T10:11:33.172Z,25.90
2018-10-12T10:14:01.440Z,27.03
2018-10-12T10:16:28.859Z,24.53
2018-10-12T10:18:56.891Z,26.07
2018-10-12T10:21:24.892Z,26.73
2018-10-12T10:23:52.356Z,24.40
2018-10-12T10:26:19.839Z,25.23
2018-10-12T10:28:47.319Z,25.50
2018-10-12T10:31:15.049Z,27.67
2018-10-12T10:33:42.531Z,24.30
2018-10-12T10:36:09.997Z,28.17
2018-10-12T10:38:37.537Z,25.67
2018-10-12T10:41:04.969Z,26.80
2018-10-12T10:43:32.460Z,26.80
2018-10-12T10:46:00.012Z,29.33
2018-10-12T10:48:27.584Z,25.90
2018-10-12T10:50:55.884Z,30.70
2018-10-12T11:00:08.289Z,25.73
2018-10-12T11:02:35.772Z,26.70
2018-10-12T11:05:03.291Z,27.27
2018-10-12T11:07:30.756Z,26.37
2018-10-12T11:09:58.871Z,23.77
2018-10-12T11:12:26.493Z,23.47
2018-10-12T11:14:53.792Z,24.93
2018-10-12T11:17:21.244Z,30.33
2018-10-12T11:19:48.706Z,25.87
2018-10-12T11:22:16.145Z,25.13
2018-10-12T11:24:43.841Z,24.13
2018-10-12T11:27:11.299Z,25.47
2018-10-12T11:29:39.447Z,28.17
2018-10-12T11:32:07.179Z,27.57
2018-10-12T11:34:34.646Z,24.57
2018-10-12T11:37:02.652Z,26.43
2018-10-12T11:39:30.083Z,23.87
2018-10-12T11:41:57.517Z,23.73
2018-10-12T11:44:24.984Z,27.57
2018-10-12T11:46:52.527Z,26.17
2018-10-12T11:49:19.975Z,28.53
2018-10-12T11:51:47.444Z,28.03
2018-10-12T11:54:14.897Z,25.73
2018-10-12T11:56:42.346Z,25.13
2018-10-12T11:59:09.744Z,24.73
2018-10-12T12:01:37.473Z,25.27
2018-10-12T12:04:06.032Z,23.73
2018-10-12T12:06:33.525Z,25.27
2018-10-12T12:09:01.011Z,27.23
2018-10-12T12:11:28.467Z,25.80
2018-10-12T12:13:56.380Z,29.13
2018-10-12T12:16:23.760Z,26.07
2018-10-12T12:18:51.286Z,26.40
2018-10-12T12:21:18.839Z,23.07
2018-10-12T12:23:46.327Z,28.17
2018-10-12T12:26:13.972Z,26.40
2018-10-12T12:28:41.491Z,25.40
2018-10-12T12:31:08.944Z,24.10
2018-10-12T12:33:36.980Z,26.10
2018-10-12T12:36:05.727Z,25.63
2018-10-12T12:38:33.067Z,24.97
2018-10-12T12:41:01.518Z,25.10
2018-10-12T12:43:28.977Z,24.07
2018-10-12T12:45:56.459Z,25.83
2018-10-12T12:48:24.163Z,26.83
2018-10-12T12:50:51.934Z,26.03
2018-10-12T12:53:19.403Z,24.30
2018-10-12T12:55:46.857Z,23.97
2018-10-12T12:58:14.272Z,23.73
2018-10-12T13:00:41.774Z,28.00
2018-10-12T13:03:09.235Z,23.53
2018-10-12T13:05:36.639Z,27.63
2018-10-12T13:08:04.112Z,25.17
2018-10-12T13:10:31.533Z,29.33
2018-10-12T13:12:58.985Z,23.07
2018-10-12T13:15:26.681Z,24.27
2018-10-12T13:17:54.231Z,26.67
2018-10-12T13:20:21.750Z,24.83
2018-10-12T13:22:49.225Z,23.93
2018-10-12T13:25:16.655Z,26.03
2018-10-12T13:27:44.239Z,24.27
2018-10-12T13:30:11.801Z,26.33
2018-10-12T13:32:39.227Z,26.57
2018-10-12T13:35:07.649Z,27.03
2018-10-12T13:37:35.161Z,26.03
2018-10-12T13:40:03.567Z,25.23
2018-10-12T13:42:31.023Z,28.77
2018-10-12T13:44:58.552Z,23.73
2018-10-12T13:47:26.006Z,23.63
2018-10-12T13:49:53.453Z,27.90
2018-10-12T13:52:20.931Z,26.73
2018-10-12T13:54:49.130Z,24.77
2018-10-12T13:57:16.575Z,29.73
2018-10-12T13:59:44.002Z,26.13
2018-10-12T14:02:11.467Z,28.47
2018-10-12T14:04:38.923Z,26.37
2018-10-12T14:07:07.172Z,26.13
2018-10-12T14:09:34.675Z,24.53
2018-10-12T14:12:02.159Z,24.13
2018-10-12T14:14:29.630Z,24.40
2018-10-12T14:16:57.136Z,26.13
2018-10-12T14:19:25.264Z,24.93
2018-10-12T14:21:52.826Z,26.17
2018-10-12T14:24:20.288Z,25.53
2018-10-12T14:26:47.832Z,30.47
2018-10-12T14:29:15.478Z,29.63
2018-10-12T14:31:43.023Z,26.50
2018-10-12T14:34:11.258Z,24.33
2018-10-12T14:36:38.739Z,30.43
2018-10-12T14:39:07.285Z,25.87
2018-10-12T14:41:35.168Z,26.87
2018-10-12T14:44:02.865Z,27.00
2018-10-12T14:46:30.707Z,27.67
2018-10-12T14:48:58.146Z,34.00
2018-10-12T14:51:25.790Z,27.37
2018-10-12T14:53:53.297Z,27.33
2018-10-12T14:56:20.783Z,25.80
2018-10-12T14:58:48.433Z,29.30
2018-10-12T15:01:16.568Z,26.00
2018-10-12T15:03:44.108Z,27.73
2018-10-12T15:06:11.640Z,28.63
2018-10-12T15:08:39.112Z,27.97
2018-10-12T15:11:06.534Z,27.23
2018-10-12T15:13:35.389Z,31.33
2018-10-12T15:16:02.934Z,29.13
2018-10-12T15:18:30.471Z,30.30
2018-10-12T15:20:58.966Z,29.10
2018-10-12T15:23:26.399Z,28.53
2018-10-12T15:25:53.828Z,28.60
2018-10-12T15:28:22.107Z,26.50
2018-10-12T15:30:49.571Z,32.90
2018-10-12T15:33:17.151Z,29.90
2018-10-12T15:35:44.645Z,30.63
2018-10-12T15:38:12.117Z,28.27
2018-10-12T15:40:48.729Z,30.43
2018-10-12T15:43:18.132Z,28.67
2018-10-12T15:45:45.543Z,28.00
2018-10-12T15:48:13.200Z,29.07
2018-10-12T15:50:41.196Z,30.70
2018-10-12T15:53:08.655Z,27.43
2018-10-12T15:55:36.144Z,28.03
2018-10-12T15:58:03.632Z,26.53
2018-10-12T16:00:31.090Z,31.30
2018-10-12T16:02:58.577Z,29.67
2018-10-12T16:05:26.018Z,31.83
2018-10-12T16:07:53.457Z,30.27
2018-10-12T16:10:21.825Z,29.20
2018-10-12T16:12:49.976Z,31.00
2018-10-12T16:15:18.328Z,28.30
2018-10-12T16:17:45.764Z,29.63
2018-10-12T16:20:13.183Z,27.70
2018-10-12T16:22:42.427Z,29.93
2018-10-12T16:25:15.440Z,33.50
2018-10-12T16:27:42.859Z,30.53
2018-10-12T16:30:10.963Z,34.00
2018-10-12T16:32:38.416Z,27.83
2018-10-12T16:35:05.867Z,29.37
2018-10-12T16:37:33.337Z,26.10
2018-10-12T16:40:00.838Z,30.17
2018-10-12T16:42:29.554Z,31.30
2018-10-12T16:44:57.059Z,31.30
2018-10-12T16:47:24.758Z,36.70
2018-10-12T16:49:52.217Z,30.63
2018-10-12T16:52:19.804Z,33.40
2018-10-12T16:54:47.366Z,27.27
2018-10-12T16:57:14.819Z,31.70
2018-10-12T16:59:42.288Z,30.17
2018-10-12T17:02:09.779Z,38.63
2018-10-12T17:04:37.583Z,30.60
2018-10-12T17:07:05.008Z,28.77
2018-10-12T17:09:33.068Z,32.87
2018-10-12T17:12:00.571Z,32.43
2018-10-12T17:14:28.078Z,28.60
2018-10-12T17:16:55.645Z,30.07
2018-10-12T17:19:23.091Z,32.70
2018-10-12T17:21:50.545Z,32.57
2018-10-12T17:24:18.029Z,34.77
2018-10-12T17:26:45.491Z,36.93
2018-10-12T17:29:12.964Z,34.90
2018-10-12T17:31:40.609Z,35.33
2018-10-12T17:34:08.944Z,37.40
2018-10-12T17:36:36.405Z,31.80
2018-10-12T17:39:04.277Z,32.27
2018-10-12T17:41:31.727Z,33.33
2018-10-12T17:43:59.940Z,32.10
2018-10-12T17:46:27.415Z,32.13
2018-10-12T17:48:55.111Z,32.47
2018-10-12T17:51:22.548Z,33.07
2018-10-12T17:53:50.063Z,36.17
2018-10-12T17:56:17.588Z,32.07
2018-10-12T17:58:45.040Z,32.17
2018-10-12T18:01:12.745Z,36.67
2018-10-12T18:03:40.208Z,34.37
2018-10-12T18:06:07.836Z,36.07
2018-10-12T18:08:35.315Z,32.60
2018-10-12T18:11:02.739Z,35.17
2018-10-12T18:13:30.241Z,32.20
2018-10-12T18:15:57.760Z,30.60
2018-10-12T18:18:25.600Z,31.57
2018-10-12T18:20:53.053Z,31.27
2018-10-12T18:23:20.557Z,34.20
2018-10-12T18:25:48.028Z,35.30
2018-10-12T18:28:15.492Z,38.07
2018-10-12T18:30:43.000Z,33.43
2018-10-12T18:33:11.007Z,32.10
2018-10-12T18:35:38.542Z,31.97
2018-10-12T18:38:06.013Z,32.50
2018-10-12T18:40:33.478Z,33.07
2018-10-12T18:43:01.012Z,35.03
2018-10-12T18:45:28.506Z,32.17
2018-10-12T18:47:55.998Z,35.10
2018-10-12T18:50:23.388Z,34.40
2018-10-12T18:52:50.879Z,36.10
2018-10-12T18:55:18.392Z,33.37
2018-10-12T18:57:45.835Z,31.37
2018-10-12T19:00:13.398Z,32.97
2018-10-12T19:02:40.888Z,31.80
2018-10-12T19:05:09.607Z,35.37
2018-10-12T19:07:36.940Z,37.17
2018-10-12T19:10:04.463Z,34.37
2018-10-12T19:12:31.899Z,34.93
2018-10-12T19:14:59.326Z,39.23
2018-10-12T19:17:28.175Z,39.10
2018-10-12T19:22:41.575Z,38.57
2018-10-12T19:25:09.371Z,35.20
2018-10-12T19:27:36.827Z,39.30
2018-10-12T19:30:04.351Z,34.43
2018-10-12T19:32:31.805Z,35.93
2018-10-12T19:34:59.241Z,35.00
2018-10-12T19:37:26.685Z,38.23
2018-10-12T19:39:54.142Z,33.93
2018-10-12T19:42:21.563Z,36.27
2018-10-12T19:44:48.963Z,38.43
2018-10-12T19:47:16.833Z,37.53
2018-10-12T19:49:44.246Z,37.50
2018-10-12T19:52:11.706Z,36.57
2018-10-12T19:54:39.138Z,37.57
2018-10-12T19:57:06.800Z,38.40
2018-10-12T19:59:34.246Z,38.03
2018-10-12T20:02:01.691Z,36.27
2018-10-12T20:04:29.128Z,37.60
2018-10-12T20:06:56.555Z,35.67
2018-10-12T20:09:23.976Z,37.80
2018-10-12T20:11:51.388Z,35.00
2018-10-12T20:14:18.820Z,34.27
2018-10-12T20:16:46.285Z,38.77
2018-10-12T20:19:13.697Z,38.20
2018-10-12T20:21:41.155Z,44.07
2018-10-12T20:24:09.260Z,37.73
2018-10-12T20:26:36.651Z,35.43
2018-10-12T20:29:04.097Z,34.27
2018-10-12T20:31:31.521Z,34.07
2018-10-12T20:33:58.971Z,41.07
2018-10-12T20:36:26.543Z,35.87
2018-10-12T20:38:53.967Z,35.33
2018-10-12T20:41:21.461Z,39.27
2018-10-12T20:43:49.492Z,40.00
2018-10-12T20:46:16.926Z,39.00
2018-10-12T20:48:44.388Z,38.97
2018-10-12T20:51:11.803Z,38.47
2018-10-12T20:53:39.224Z,44.00
2018-10-12T20:56:06.811Z,37.27
2018-10-12T20:58:35.275Z,38.90
2018-10-12T21:01:02.719Z,39.67
2018-10-12T21:03:30.144Z,40.50
2018-10-12T21:05:57.550Z,43.13
2018-10-12T21:08:24.991Z,37.07
2018-10-12T21:10:52.469Z,37.57
2018-10-12T21:13:19.905Z,40.97
2018-10-12T21:15:47.360Z,40.30
2018-10-12T21:18:14.776Z,38.37
2018-10-12T21:20:42.202Z,38.50
2018-10-12T21:23:09.643Z,41.83
2018-10-12T21:25:37.115Z,40.07
2018-10-12T21:28:04.535Z,41.23
2018-10-12T21:30:31.939Z,38.00
2018-10-12T21:32:59.581Z,41.57
2018-10-12T21:35:27.032Z,41.03
2018-10-12T21:37:54.415Z,37.90
2018-10-12T21:40:21.893Z,38.57
2018-10-12T21:42:49.315Z,39.60
2018-10-12T21:45:16.744Z,40.83
2018-10-12T21:47:44.191Z,43.80
2018-10-12T21:50:12.257Z,42.67
2018-10-12T21:52:39.667Z,39.93
2018-10-12T21:55:07.128Z,42.17
2018-10-12T21:57:35.385Z,44.57
2018-10-12T22:00:02.846Z,40.07
2018-10-12T22:02:30.310Z,41.20
2018-10-12T22:04:57.897Z,41.10
2018-10-12T22:07:26.337Z,38.20
2018-10-12T22:09:53.725Z,38.47
2018-10-12T22:12:21.140Z,40.97
2018-10-12T22:14:48.867Z,41.00
2018-10-12T22:17:17.094Z,37.73
2018-10-12T22:19:44.527Z,39.47
2018-10-12T22:22:11.956Z,39.33
2018-10-12T22:24:39.395Z,42.97
2018-10-12T22:27:06.807Z,41.57
2018-10-12T22:29:34.207Z,41.80
2018-10-12T22:32:01.615Z,42.90
2018-10-12T22:34:29.035Z,44.73
2018-10-12T22:36:56.499Z,45.63
2018-10-12T22:39:23.919Z,44.93
2018-10-12T22:41:51.328Z,40.90
2018-10-12T22:44:18.788Z,41.83
2018-10-12T22:46:46.251Z,45.23
2018-10-12T22:49:13.691Z,44.23
2018-10-12T22:51:41.143Z,46.23
2018-10-12T22:54:08.697Z,45.03
2018-10-12T22:56:36.107Z,48.30
2018-10-12T22:59:03.534Z,46.30
2018-10-12T23:01:30.996Z,41.27
2018-10-12T23:03:58.387Z,43.83
2018-10-12T23:06:25.795Z,46.57
2018-10-12T23:08:53.192Z,43.20
2018-10-12T23:11:20.627Z,40.57
2018-10-12T23:13:48.049Z,42.30
2018-10-12T23:16:15.470Z,43.47
2018-10-12T23:18:43.220Z,37.80
2018-10-12T23:21:10.599Z,38.80
2018-10-12T23:23:38.068Z,37.73
2018-10-12T23:26:05.483Z,39.13
2018-10-12T23:28:32.911Z,42.20
2018-10-12T23:31:00.392Z,42.90
2018-10-12T23:33:33.295Z,44.60
2018-10-12T23:36:01.309Z,41.60
2018-10-12T23:38:28.719Z,45.67
2018-10-12T23:40:56.123Z,39.97
2018-10-12T23:43:23.587Z,39.93
2018-10-12T23:45:51.020Z,46.33
2018-10-12T23:48:18.478Z,41.70
2018-10-12T23:50:45.892Z,41.90
2018-10-12T23:53:13.307Z,45.40
2018-10-12T23:55:40.699Z,43.87
2018-10-12T23:58:08.133Z,44.83
